Time;durP1;ratioP1;P1;durP2;ratioP2;P2;SDS_P1;SDS_P2;PMS_P1;PMS_P2;Temp;Humidity;BMP_temperature;BMP_pressure;BME280_temperature;BME280_humidity;BME280_pressure;Samples;Min_cycle;Max_cycle;Signal;HPM_P1;HPM_P2
2022/09/03 00:00:36;;;;;;;0.10;0.10;;;12.00;99.90;226.50;231333.00;;;;4981721;28;20232;-74
2022/09/03 00:03:18;;;;;;;0.05;0.05;;;11.90;99.90;226.50;231333.00;;;;4981571;28;20706;-75
2022/09/03 00:05:56;;;;;;;0.10;0.10;;;12.00;99.90;226.50;231333.00;;;;4981723;28;20205;-75
2022/09/03 00:08:43;;;;;;;0.03;0.03;;;11.90;99.90;226.50;231333.00;;;;4983881;28;20212;-74
2022/09/03 00:11:20;;;;;;;0.10;0.10;;;11.90;99.90;226.50;231333.00;;;;4983083;28;20223;-75
2022/09/03 00:14:01;;;;;;;0.10;0.10;;;11.60;99.90;226.50;231333.00;;;;4984078;28;20206;-75
2022/09/03 00:16:44;;;;;;;0.10;0.10;;;11.60;99.90;226.50;231333.00;;;;4982867;28;20209;-74
2022/09/03 00:19:21;;;;;;;0.05;0.05;;;11.60;99.90;226.50;231333.00;;;;4983522;28;20236;-75
2022/09/03 00:21:57;;;;;;;0.10;0.10;;;11.60;99.90;226.50;231333.00;;;;4983722;28;20204;-74
2022/09/03 00:24:35;;;;;;;0.10;0.10;;;11.40;99.90;226.50;231333.00;;;;4984075;28;20223;-75
2022/09/03 00:27:12;;;;;;;0.10;0.10;;;11.50;99.90;226.50;231333.00;;;;4984294;28;20210;-74
2022/09/03 00:29:52;;;;;;;0.10;0.10;;;11.40;99.90;226.50;231333.00;;;;4982048;28;20225;-74
2022/09/03 00:32:33;;;;;;;0.10;0.10;;;11.40;99.90;226.50;231333.00;;;;4982980;28;20815;-74
2022/09/03 00:35:10;;;;;;;0.10;0.10;;;11.50;99.90;226.50;231333.00;;;;4983441;28;20208;-74
2022/09/03 00:37:40;;;;;;;0.10;0.10;;;11.50;99.90;226.50;231333.00;;;;4982624;28;20572;-74
2022/09/03 00:40:31;;;;;;;0.10;0.10;;;11.50;99.90;226.50;231333.00;;;;4983221;28;20593;-74
2022/09/03 00:43:15;;;;;;;0.10;0.10;;;11.40;99.90;226.50;231333.00;;;;4982920;28;20208;-75
2022/09/03 00:46:05;;;;;;;0.10;0.10;;;11.30;99.90;226.50;231333.00;;;;4983184;28;20280;-74
2022/09/03 00:48:54;;;;;;;0.00;0.00;;;11.30;99.90;226.50;231333.00;;;;4983234;28;20197;-74
2022/09/03 00:51:36;;;;;;;0.00;0.00;;;11.20;99.90;226.50;231333.00;;;;4982422;28;20215;-73
2022/09/03 00:54:20;;;;;;;0.10;0.10;;;11.10;99.90;226.50;231333.00;;;;4981811;28;20189;-74
2022/09/03 00:57:06;;;;;;;0.10;0.10;;;11.20;99.90;226.50;231333.00;;;;4983528;28;20212;-74
2022/09/03 00:59:47;;;;;;;0.10;0.10;;;11.00;99.90;226.50;231333.00;;;;4984906;28;20225;-74
2022/09/03 01:02:32;;;;;;;0.10;0.10;;;11.10;99.90;226.50;231333.00;;;;4983554;28;20204;-74
2022/09/03 01:05:19;;;;;;;0.10;0.10;;;11.10;99.90;226.50;231333.00;;;;4982774;28;20200;-74
2022/09/03 01:08:07;;;;;;;0.10;0.10;;;11.10;99.90;226.50;231333.00;;;;4981207;28;20207;-74
2022/09/03 01:10:54;;;;;;;0.10;0.10;;;11.10;99.90;226.50;231333.00;;;;4981930;28;20223;-74
2022/09/03 01:13:37;;;;;;;0.10;0.10;;;11.10;99.90;226.50;231333.00;;;;4982659;28;20245;-74
2022/09/03 01:16:20;;;;;;;0.10;0.10;;;11.10;99.90;226.50;231333.00;;;;4981960;28;20667;-74
2022/09/03 01:19:07;;;;;;;0.10;0.10;;;11.00;99.90;226.50;231333.00;;;;4981493;28;20715;-74
2022/09/03 01:22:09;;;;;;;0.10;0.10;;;11.00;99.90;226.50;231333.00;;;;4982202;28;20212;-74
2022/09/03 01:25:16;;;;;;;0.10;0.10;;;10.80;99.90;226.50;231333.00;;;;4983447;28;20211;-74
2022/09/03 01:28:12;;;;;;;0.10;0.10;;;10.90;99.90;226.50;231333.00;;;;4982000;28;20593;-73
2022/09/03 01:30:50;;;;;;;0.10;0.10;;;10.90;99.90;226.50;231333.00;;;;4982744;28;20266;-74
2022/09/03 01:33:31;;;;;;;0.03;0.03;;;10.80;99.90;226.50;231333.00;;;;4980782;28;20246;-74
2022/09/03 01:36:15;;;;;;;0.10;0.10;;;10.80;99.90;226.50;231333.00;;;;4982174;28;20205;-74
2022/09/03 01:38:55;;;;;;;0.10;0.10;;;10.80;99.90;226.50;231333.00;;;;4980275;28;20215;-75
2022/09/03 01:44:51;;;;;;;0.10;0.10;;;10.90;99.90;226.50;231333.00;;;;4978244;28;20581;-75
2022/09/03 01:47:36;;;;;;;0.10;0.10;;;10.90;99.90;226.50;231333.00;;;;4982062;28;20664;-75
2022/09/03 01:50:16;;;;;;;0.10;0.10;;;10.80;99.90;226.50;231333.00;;;;4981743;28;20217;-74
2022/09/03 01:52:59;;;;;;;0.10;0.10;;;10.90;99.90;226.50;231333.00;;;;4989144;28;20227;-74
2022/09/03 01:55:39;;;;;;;0.10;0.10;;;10.80;99.90;226.50;231333.00;;;;4989154;28;20197;-74
2022/09/03 01:58:15;;;;;;;0.10;0.10;;;10.80;99.90;226.50;231333.00;;;;4981915;28;20675;-74
2022/09/03 02:00:58;;;;;;;0.08;0.08;;;10.80;99.90;226.50;231333.00;;;;4981083;28;20913;-74
2022/09/03 02:03:37;;;;;;;0.10;0.10;;;10.70;99.90;226.50;231333.00;;;;4980362;28;20666;-74
2022/09/03 02:06:12;;;;;;;0.10;0.10;;;10.70;99.90;226.50;231333.00;;;;4982075;28;20223;-74
2022/09/03 02:08:43;;;;;;;0.10;0.10;;;10.80;99.90;226.50;231333.00;;;;4979611;28;20207;-74
2022/09/03 02:11:13;;;;;;;0.10;0.10;;;10.80;99.90;226.50;231333.00;;;;4981212;28;20623;-74
2022/09/03 02:13:48;;;;;;;0.10;0.10;;;10.70;99.90;226.50;231333.00;;;;4981081;28;20276;-73
2022/09/03 02:16:28;;;;;;;0.10;0.10;;;10.70;99.90;226.50;231333.00;;;;4982566;28;20204;-73
2022/09/03 02:19:02;;;;;;;0.10;0.10;;;10.60;99.90;226.50;231333.00;;;;4981803;28;20232;-73
2022/09/03 02:21:38;;;;;;;0.10;0.10;;;10.60;99.90;226.50;231333.00;;;;4980624;28;20571;-75
2022/09/03 02:24:11;;;;;;;0.10;0.10;;;10.60;99.90;226.50;231333.00;;;;4980914;28;20211;-74
2022/09/03 02:26:41;;;;;;;0.10;0.10;;;10.50;99.90;226.50;231333.00;;;;4980978;28;20549;-74
2022/09/03 02:29:13;;;;;;;0.10;0.10;;;10.50;99.90;226.50;231333.00;;;;4979864;28;20228;-75
2022/09/03 02:31:44;;;;;;;0.10;0.10;;;10.50;99.90;226.50;231333.00;;;;4981690;28;20213;-74
2022/09/03 02:34:15;;;;;;;0.10;0.10;;;10.50;99.90;226.50;231333.00;;;;4979110;28;20295;-74
2022/09/03 02:36:47;;;;;;;0.10;0.10;;;10.40;99.90;226.50;231333.00;;;;4982577;28;20200;-74
2022/09/03 02:39:19;;;;;;;0.00;0.00;;;10.40;99.90;226.50;231333.00;;;;4980931;28;20224;-74
2022/09/03 02:41:58;;;;;;;0.10;0.10;;;10.40;99.90;226.50;231333.00;;;;4981619;28;20617;-74
2022/09/03 02:44:32;;;;;;;0.10;0.10;;;10.40;99.90;226.50;231333.00;;;;4980122;28;20196;-74
2022/09/03 02:47:09;;;;;;;0.10;0.10;;;10.40;99.90;226.50;231333.00;;;;4981380;28;20774;-73
2022/09/03 02:49:39;;;;;;;0.10;0.10;;;10.50;99.90;226.50;231333.00;;;;4980291;28;20228;-73
2022/09/03 02:52:11;;;;;;;0.10;0.10;;;10.70;99.90;226.50;231333.00;;;;4981915;28;20203;-73
2022/09/03 02:54:43;;;;;;;0.10;0.10;;;10.80;99.90;226.50;231333.00;;;;4980898;28;20219;-73
2022/09/03 02:57:16;;;;;;;0.10;0.10;;;10.80;99.90;226.50;231333.00;;;;4982574;28;20211;-73
2022/09/03 02:59:57;;;;;;;0.10;0.10;;;10.80;99.90;226.50;231333.00;;;;4982684;28;20311;-73
2022/09/03 03:02:28;;;;;;;0.10;0.10;;;10.80;99.90;226.50;231333.00;;;;4981174;28;20247;-72
2022/09/03 03:04:59;;;;;;;0.10;0.10;;;10.80;99.90;226.50;231333.00;;;;4988406;28;20543;-73
2022/09/03 03:07:32;;;;;;;0.10;0.10;;;10.90;99.90;226.50;231333.00;;;;4978159;28;20580;-73
2022/09/03 03:10:02;;;;;;;0.10;0.10;;;10.90;99.90;226.50;231333.00;;;;4978332;28;20229;-74
2022/09/03 03:12:33;;;;;;;0.10;0.10;;;11.00;99.90;226.50;231333.00;;;;4979650;28;20200;-73
2022/09/03 03:15:03;;;;;;;0.10;0.10;;;11.00;99.90;226.50;231333.00;;;;4978501;28;20204;-74
2022/09/03 03:17:35;;;;;;;0.10;0.10;;;11.00;99.90;226.50;231333.00;;;;4977785;28;20196;-74
2022/09/03 03:20:07;;;;;;;0.10;0.10;;;10.90;99.90;226.50;231333.00;;;;4980237;28;20233;-73
2022/09/03 03:22:37;;;;;;;0.10;0.10;;;10.90;99.90;226.50;231333.00;;;;4980069;28;20205;-74
2022/09/03 03:25:09;;;;;;;0.10;0.10;;;10.90;99.90;226.50;231333.00;;;;4981124;28;20208;-73
2022/09/03 03:27:41;;;;;;;0.10;0.10;;;10.70;99.90;226.50;231333.00;;;;4981240;28;20212;-74
2022/09/03 03:30:13;;;;;;;0.10;0.10;;;10.60;99.90;226.50;231333.00;;;;4978439;28;20252;-73
2022/09/03 03:32:44;;;;;;;0.10;0.10;;;10.50;99.90;226.50;231333.00;;;;4978199;28;20201;-72
2022/09/03 03:35:14;;;;;;;0.10;0.10;;;10.40;99.90;226.50;231333.00;;;;4977474;28;20693;-73
2022/09/03 03:37:44;;;;;;;0.10;0.10;;;10.50;99.90;226.50;231333.00;;;;4979201;28;20205;-73
2022/09/03 03:40:15;;;;;;;0.10;0.10;;;10.30;99.90;226.50;231333.00;;;;4981576;28;20563;-73
2022/09/03 03:42:45;;;;;;;0.10;0.10;;;10.30;99.90;226.50;231333.00;;;;4983165;28;20224;-73
2022/09/03 03:45:16;;;;;;;0.10;0.10;;;10.20;99.90;226.50;231333.00;;;;4983642;28;20220;-74
2022/09/03 03:47:48;;;;;;;0.10;0.10;;;10.20;99.90;226.50;231333.00;;;;4983371;28;20237;-74
2022/09/03 03:50:18;;;;;;;0.10;0.10;;;10.10;99.90;226.50;231333.00;;;;4984729;28;20228;-73
2022/09/03 03:52:48;;;;;;;0.10;0.10;;;10.20;99.90;226.50;231333.00;;;;4983874;28;20205;-73
2022/09/03 03:55:19;;;;;;;0.10;0.10;;;10.20;99.90;226.50;231333.00;;;;4983569;28;20207;-73
2022/09/03 03:57:49;;;;;;;0.10;0.10;;;10.20;99.90;226.50;231333.00;;;;4983075;28;20208;-74
2022/09/03 04:00:19;;;;;;;0.10;0.10;;;10.10;99.90;226.50;231333.00;;;;4985301;28;20313;-73
2022/09/03 04:02:51;;;;;;;0.10;0.10;;;9.90;99.90;226.50;231333.00;;;;4984631;28;20622;-73
2022/09/03 04:05:21;;;;;;;0.10;0.10;;;9.90;99.90;226.50;231333.00;;;;4982037;28;20208;-74
2022/09/03 04:07:52;;;;;;;0.10;0.10;;;9.90;99.90;226.50;231333.00;;;;4991507;28;20196;-74
2022/09/03 04:10:23;;;;;;;0.10;0.10;;;9.90;99.90;226.50;231333.00;;;;4983177;28;20231;-74
2022/09/03 04:12:56;;;;;;;0.10;0.10;;;10.00;99.90;226.50;231333.00;;;;4984699;28;20197;-74
2022/09/03 04:15:26;;;;;;;0.10;0.10;;;9.90;99.90;226.50;231333.00;;;;4982182;28;20268;-73
2022/09/03 04:17:59;;;;;;;0.10;0.10;;;9.90;99.90;226.50;231333.00;;;;4983475;28;20256;-74
2022/09/03 04:20:29;;;;;;;0.10;0.10;;;10.10;99.90;226.50;231333.00;;;;4982660;28;20232;-74
2022/09/03 04:23:02;;;;;;;0.10;0.10;;;10.10;99.90;226.50;231333.00;;;;4982037;28;20208;-74
2022/09/03 04:25:33;;;;;;;0.10;0.10;;;10.20;99.90;226.50;231333.00;;;;4981412;28;20201;-75
2022/09/03 04:28:03;;;;;;;0.10;0.10;;;10.30;99.90;226.50;231333.00;;;;4981771;28;20198;-75
2022/09/03 04:30:34;;;;;;;0.10;0.10;;;10.20;99.90;226.50;231333.00;;;;4983040;28;20703;-74
2022/09/03 04:33:06;;;;;;;0.10;0.10;;;10.10;99.90;226.50;231333.00;;;;4982834;28;20653;-74
2022/09/03 04:35:45;;;;;;;0.10;0.10;;;10.30;99.90;226.50;231333.00;;;;4981014;28;20211;-75
2022/09/03 04:38:16;;;;;;;0.10;0.10;;;10.40;99.90;226.50;231333.00;;;;4981595;28;20212;-74
2022/09/03 04:40:51;;;;;;;0.10;0.10;;;10.40;99.90;226.50;231333.00;;;;4983181;28;20232;-73
2022/09/03 04:43:21;;;;;;;0.10;0.10;;;10.50;99.90;226.50;231333.00;;;;4982811;28;20204;-73
2022/09/03 04:45:51;;;;;;;0.10;0.10;;;10.20;99.90;226.50;231333.00;;;;4990073;28;20205;-75
2022/09/03 04:48:23;;;;;;;0.10;0.10;;;10.20;99.90;226.50;231333.00;;;;4989546;28;20225;-75
2022/09/03 04:50:54;;;;;;;0.10;0.10;;;10.10;99.90;226.50;231333.00;;;;4993122;28;20230;-75
2022/09/03 04:53:25;;;;;;;0.10;0.10;;;10.00;99.90;226.50;231333.00;;;;4992580;28;20210;-75
2022/09/03 04:55:54;;;;;;;0.10;0.10;;;10.00;99.90;226.50;231333.00;;;;4990398;28;20215;-73
2022/09/03 04:58:25;;;;;;;0.10;0.10;;;10.00;99.90;226.50;231333.00;;;;4981503;28;20220;-74
2022/09/03 05:00:55;;;;;;;0.10;0.10;;;10.10;99.90;226.50;231333.00;;;;4981787;28;20327;-73
2022/09/03 05:03:28;;;;;;;0.10;0.10;;;10.00;99.90;226.50;231333.00;;;;4981570;28;20209;-72
2022/09/03 05:05:58;;;;;;;0.10;0.10;;;10.00;99.90;226.50;231333.00;;;;4981805;28;20208;-73
2022/09/03 05:08:28;;;;;;;0.00;0.00;;;10.00;99.90;226.50;231333.00;;;;4981119;28;20209;-74
2022/09/03 05:11:01;;;;;;;0.10;0.10;;;10.00;99.90;226.50;231333.00;;;;4980778;28;20200;-75
2022/09/03 05:13:32;;;;;;;0.10;0.10;;;10.10;99.90;226.50;231333.00;;;;4982575;28;20260;-74
2022/09/03 05:16:05;;;;;;;0.10;0.10;;;10.10;99.90;226.50;231333.00;;;;4981570;28;20215;-74
2022/09/03 05:18:38;;;;;;;0.10;0.10;;;10.20;99.90;226.50;231333.00;;;;4982496;28;20207;-74
2022/09/03 05:21:11;;;;;;;0.10;0.10;;;10.20;99.90;226.50;231333.00;;;;4981812;28;20304;-75
2022/09/03 05:23:43;;;;;;;0.10;0.10;;;10.10;99.90;226.50;231333.00;;;;4981559;28;20467;-76
2022/09/03 05:26:16;;;;;;;0.10;0.10;;;10.20;99.90;226.50;231333.00;;;;4980111;28;20212;-78
2022/09/03 05:28:48;;;;;;;0.10;0.10;;;10.30;99.90;226.50;231333.00;;;;4980295;28;20660;-75
2022/09/03 05:31:20;;;;;;;0.10;0.10;;;10.20;99.90;226.50;231333.00;;;;4983160;28;20205;-75
2022/09/03 05:33:56;;;;;;;0.10;0.10;;;10.20;99.90;226.50;231333.00;;;;4980569;28;20589;-75
2022/09/03 05:36:29;;;;;;;0.10;0.10;;;10.30;99.90;226.50;231333.00;;;;4983406;28;20205;-76
2022/09/03 05:39:01;;;;;;;0.10;0.10;;;10.30;99.90;226.50;231333.00;;;;4982557;28;20212;-75
2022/09/03 05:41:32;;;;;;;0.10;0.10;;;10.40;99.90;226.50;231333.00;;;;4981158;28;20208;-76
2022/09/03 05:44:04;;;;;;;0.10;0.10;;;10.50;99.90;226.50;231333.00;;;;4979086;28;20263;-77
2022/09/03 05:46:36;;;;;;;0.10;0.10;;;10.60;99.90;226.50;231333.00;;;;4981375;28;20210;-77
2022/09/03 05:49:10;;;;;;;0.10;0.10;;;10.60;99.90;226.50;231333.00;;;;4983211;28;20221;-76
2022/09/03 05:51:41;;;;;;;0.00;0.00;;;10.60;99.90;226.50;231333.00;;;;4983123;28;20538;-76
2022/09/03 05:54:12;;;;;;;0.10;0.10;;;10.70;99.90;226.50;231333.00;;;;4982377;28;20197;-75
2022/09/03 05:56:42;;;;;;;0.08;0.08;;;10.70;99.90;226.50;231333.00;;;;4986646;28;20203;-77
2022/09/03 05:59:13;;;;;;;0.10;0.10;;;10.80;99.90;226.50;231333.00;;;;4994739;28;20217;-75
2022/09/03 06:01:46;;;;;;;0.10;0.10;;;11.00;99.90;226.50;231333.00;;;;4996105;28;20220;-77
2022/09/03 06:04:22;;;;;;;0.10;0.10;;;11.20;99.90;226.50;231333.00;;;;4983561;28;20231;-77
2022/09/03 06:06:52;;;;;;;0.10;0.10;;;11.30;99.90;226.50;231333.00;;;;4983414;28;20197;-76
2022/09/03 06:09:24;;;;;;;0.10;0.10;;;11.50;99.90;226.50;231333.00;;;;4980797;28;20742;-78
2022/09/03 06:11:54;;;;;;;0.10;0.10;;;11.60;99.90;226.50;231333.00;;;;4978795;28;20208;-76
2022/09/03 06:14:26;;;;;;;0.10;0.10;;;11.70;99.90;226.50;231333.00;;;;4982818;28;20283;-77
2022/09/03 06:16:56;;;;;;;0.10;0.10;;;11.70;99.90;226.50;231333.00;;;;4981676;28;20209;-77
2022/09/03 06:19:27;;;;;;;0.10;0.10;;;11.80;99.90;226.50;231333.00;;;;4981762;28;20228;-77
2022/09/03 06:21:57;;;;;;;0.10;0.10;;;11.90;99.90;226.50;231333.00;;;;4982525;28;20205;-76
2022/09/03 06:24:28;;;;;;;0.10;0.10;;;12.00;99.90;226.50;231333.00;;;;4982432;28;20204;-79
2022/09/03 06:26:59;;;;;;;0.10;0.10;;;12.00;99.90;226.50;231333.00;;;;4981675;28;20211;-78
2022/09/03 06:29:29;;;;;;;0.10;0.10;;;12.00;99.90;226.50;231333.00;;;;4979398;28;20743;-77
2022/09/03 06:32:00;;;;;;;0.10;0.10;;;12.00;99.90;226.50;231333.00;;;;4981066;28;20687;-78
2022/09/03 06:34:32;;;;;;;0.10;0.10;;;12.10;99.90;226.50;231333.00;;;;4980943;28;20197;-77
2022/09/03 06:37:02;;;;;;;0.10;0.10;;;12.20;99.90;226.50;231333.00;;;;4980790;28;20538;-77
2022/09/03 06:39:32;;;;;;;0.10;0.10;;;12.10;99.90;226.50;231333.00;;;;4979028;28;20221;-78
2022/09/03 06:42:03;;;;;;;0.00;0.00;;;12.00;99.90;226.50;231333.00;;;;4981423;28;20401;-78
2022/09/03 06:44:38;;;;;;;0.10;0.10;;;12.00;99.90;226.50;231333.00;;;;4977648;28;20629;-77
2022/09/03 06:47:08;;;;;;;0.10;0.10;;;12.00;99.90;226.50;231333.00;;;;4979107;28;20330;-77
2022/09/03 06:49:39;;;;;;;0.10;0.10;;;12.10;99.90;226.50;231333.00;;;;4980378;28;20237;-77
2022/09/03 06:52:09;;;;;;;0.10;0.10;;;12.20;99.90;226.50;231333.00;;;;4980477;28;20735;-78
2022/09/03 06:54:39;;;;;;;0.10;0.10;;;12.30;99.90;226.50;231333.00;;;;4981361;28;20205;-78
2022/09/03 06:57:10;;;;;;;0.00;0.00;;;12.40;99.90;226.50;231333.00;;;;4978210;28;20235;-78
2022/09/03 06:59:40;;;;;;;0.00;0.00;;;12.50;99.90;226.50;231333.00;;;;4980838;28;20235;-78
2022/09/03 07:02:10;;;;;;;0.10;0.10;;;12.60;99.90;226.50;231333.00;;;;4978875;28;20197;-79
2022/09/03 07:04:42;;;;;;;0.10;0.10;;;12.60;99.90;226.50;231333.00;;;;4978725;28;20745;-78
2022/09/03 07:07:15;;;;;;;0.10;0.10;;;12.70;99.90;226.50;231333.00;;;;4984973;28;20239;-77
2022/09/03 07:09:45;;;;;;;0.10;0.10;;;12.70;99.90;226.50;231333.00;;;;4984957;28;20225;-77
2022/09/03 07:12:18;;;;;;;0.10;0.10;;;12.80;99.90;226.50;231333.00;;;;4984176;28;20200;-78
2022/09/03 07:14:49;;;;;;;0.10;0.10;;;12.80;99.90;226.50;231333.00;;;;4981050;28;20211;-78
2022/09/03 07:17:20;;;;;;;0.10;0.10;;;12.90;99.90;226.50;231333.00;;;;4984302;28;20214;-78
2022/09/03 07:19:52;;;;;;;0.10;0.10;;;12.90;99.90;226.50;231333.00;;;;4984655;28;20231;-77
2022/09/03 07:22:22;;;;;;;0.10;0.10;;;13.00;99.90;226.50;231333.00;;;;4984297;28;20204;-78
2022/09/03 07:25:01;;;;;;;0.05;0.05;;;13.10;99.90;226.50;231333.00;;;;4985755;28;20207;-77
2022/09/03 07:27:31;;;;;;;0.00;0.00;;;13.30;99.90;226.50;231333.00;;;;4985752;28;20212;-78
2022/09/03 07:30:02;;;;;;;0.10;0.10;;;13.40;99.90;226.50;231333.00;;;;4982224;28;20231;-78
2022/09/03 07:32:33;;;;;;;0.10;0.10;;;13.60;99.90;226.50;231333.00;;;;4983473;28;20210;-78
2022/09/03 07:35:04;;;;;;;0.10;0.10;;;13.60;99.90;226.50;231333.00;;;;4981488;28;20209;-78
2022/09/03 07:37:36;;;;;;;0.10;0.10;;;13.70;99.90;226.50;231333.00;;;;4985822;28;20205;-78
2022/09/03 07:40:07;;;;;;;0.10;0.10;;;13.80;99.90;226.50;231333.00;;;;4984308;28;20235;-77
2022/09/03 07:42:38;;;;;;;0.10;0.10;;;14.00;99.90;226.50;231333.00;;;;4983041;28;20201;-78
2022/09/03 07:45:11;;;;;;;0.00;0.00;;;14.10;99.90;226.50;231333.00;;;;4985273;28;20558;-77
2022/09/03 07:47:48;;;;;;;0.10;0.10;;;14.30;99.90;226.50;231333.00;;;;4984699;28;20205;-78
2022/09/03 07:50:20;;;;;;;0.10;0.10;;;14.40;99.90;226.50;231333.00;;;;4986151;28;20220;-76
2022/09/03 07:52:50;;;;;;;0.00;0.00;;;14.50;99.90;226.50;231333.00;;;;4982541;28;20290;-77
2022/09/03 07:55:20;;;;;;;0.10;0.10;;;14.60;99.90;226.50;231333.00;;;;4983030;28;20568;-77
2022/09/03 07:57:50;;;;;;;0.10;0.10;;;14.70;99.90;226.50;231333.00;;;;4984531;28;20209;-78
2022/09/03 08:00:20;;;;;;;0.00;0.00;;;14.80;99.90;226.50;231333.00;;;;4980245;28;20243;-78
2022/09/03 08:02:51;;;;;;;0.10;0.10;;;15.00;99.90;226.50;231333.00;;;;4980392;28;20208;-77
2022/09/03 08:05:26;;;;;;;0.10;0.10;;;15.10;99.90;226.50;231333.00;;;;4981174;28;20745;-77
2022/09/03 08:07:56;;;;;;;0.00;0.00;;;15.20;99.90;226.50;231333.00;;;;4980439;28;20559;-77
2022/09/03 08:10:29;;;;;;;0.03;0.03;;;15.30;99.90;226.50;231333.00;;;;4980478;28;20220;-77
2022/09/03 08:12:59;;;;;;;0.00;0.00;;;15.50;99.90;226.50;231333.00;;;;4984154;28;20229;-77
2022/09/03 08:15:30;;;;;;;0.03;0.03;;;15.70;99.90;226.50;231333.00;;;;4983480;28;20560;-77
2022/09/03 08:18:01;;;;;;;0.08;0.08;;;15.80;99.90;226.50;231333.00;;;;4982796;28;20209;-77
2022/09/03 08:20:37;;;;;;;0.10;0.10;;;15.90;99.90;226.50;231333.00;;;;4983400;28;20227;-76
2022/09/03 08:23:08;;;;;;;0.00;0.00;;;16.10;99.90;226.50;231333.00;;;;4983465;28;20201;-76
2022/09/03 08:25:38;;;;;;;0.00;0.00;;;16.30;99.90;226.50;231333.00;;;;4984386;28;20217;-77
2022/09/03 08:28:08;;;;;;;0.10;0.10;;;16.50;99.90;226.50;231333.00;;;;4978765;28;20196;-77
2022/09/03 08:30:40;;;;;;;0.00;0.00;;;16.60;99.90;226.50;231333.00;;;;4991376;28;20232;-76
2022/09/03 08:33:10;;;;;;;0.00;0.00;;;16.80;99.90;226.50;231333.00;;;;4990089;28;20313;-75
2022/09/03 08:35:42;;;;;;;0.00;0.00;;;17.00;99.90;226.50;231333.00;;;;4992337;28;20204;-76
2022/09/03 08:38:14;;;;;;;0.00;0.00;;;17.10;99.90;226.50;231333.00;;;;4981010;28;20230;-76
2022/09/03 08:40:44;;;;;;;0.00;0.00;;;17.30;99.90;226.50;231333.00;;;;4981619;28;20301;-76
2022/09/03 08:43:19;;;;;;;0.00;0.00;;;17.50;99.90;226.50;231333.00;;;;4983030;28;20206;-77
2022/09/03 08:45:49;;;;;;;0.00;0.00;;;17.70;99.90;226.50;231333.00;;;;4995693;28;20587;-79
2022/09/03 08:48:27;;;;;;;0.10;0.10;;;17.80;99.90;226.50;231333.00;;;;4983648;28;20198;-76
2022/09/03 08:51:06;;;;;;;0.00;0.00;;;17.80;99.90;226.50;231333.00;;;;4983949;28;20279;-76
2022/09/03 08:53:49;;;;;;;0.00;0.00;;;17.90;99.90;226.50;231333.00;;;;4983846;28;20206;-76
2022/09/03 08:56:28;;;;;;;0.00;0.00;;;18.10;99.90;226.50;231333.00;;;;4980388;28;20232;-76
2022/09/03 08:59:00;;;;;;;0.00;0.00;;;18.30;99.90;226.50;231333.00;;;;4982185;28;20272;-76
2022/09/03 09:01:46;;;;;;;0.00;0.00;;;18.50;99.90;226.50;231333.00;;;;4983558;28;20211;-77
2022/09/03 09:04:33;;;;;;;0.00;0.00;;;18.70;99.90;226.50;231333.00;;;;4982664;28;20209;-77
2022/09/03 09:07:17;;;;;;;0.00;0.00;;;18.90;99.90;226.50;231333.00;;;;4982635;28;20201;-79
2022/09/03 09:10:00;;;;;;;0.00;0.00;;;19.10;99.90;226.50;231333.00;;;;4982527;28;20224;-76
2022/09/03 09:12:43;;;;;;;0.00;0.00;;;19.30;99.90;226.50;231333.00;;;;4981145;28;20211;-77
2022/09/03 09:15:30;;;;;;;0.00;0.00;;;19.40;99.90;226.50;231333.00;;;;4981583;28;20215;-77
2022/09/03 09:18:16;;;;;;;0.00;0.00;;;19.60;99.90;226.50;231333.00;;;;4982590;28;20224;-77
2022/09/03 09:20:53;;;;;;;0.00;0.00;;;19.70;99.90;226.50;231333.00;;;;4981176;28;20243;-77
2022/09/03 09:23:34;;;;;;;0.00;0.00;;;19.70;99.90;226.50;231333.00;;;;4982380;28;20203;-77
2022/09/03 09:26:13;;;;;;;0.00;0.00;;;19.80;99.90;226.50;231333.00;;;;4980754;28;20202;-77
2022/09/03 09:28:46;;;;;;;0.00;0.00;;;19.80;99.90;226.50;231333.00;;;;4981417;28;20213;-77
2022/09/03 09:31:20;;;;;;;0.00;0.00;;;19.40;99.90;226.50;231333.00;;;;4984643;28;20256;-78
2022/09/03 09:33:51;;;;;;;0.00;0.00;;;19.30;99.90;226.50;231333.00;;;;4980113;28;20302;-77
2022/09/03 09:36:22;;;;;;;0.00;0.00;;;19.40;99.90;226.50;231333.00;;;;4981644;28;20300;-78
2022/09/03 09:38:55;;;;;;;0.00;0.00;;;19.50;99.90;226.50;231333.00;;;;4981230;28;20215;-76
2022/09/03 09:41:25;;;;;;;0.00;0.00;;;19.60;99.90;226.50;231333.00;;;;4981685;28;20208;-76
2022/09/03 09:44:05;;;;;;;0.00;0.00;;;19.50;99.90;226.50;231333.00;;;;4981487;28;20208;-76
2022/09/03 09:46:40;;;;;;;0.00;0.00;;;19.60;99.90;226.50;231333.00;;;;4981553;28;20676;-76
2022/09/03 09:49:32;;;;;;;0.00;0.00;;;19.70;99.90;226.50;231333.00;;;;4981440;28;20229;-76
2022/09/03 09:52:11;;;;;;;0.00;0.00;;;19.90;99.90;226.50;231333.00;;;;4983609;28;20209;-77
2022/09/03 09:54:45;;;;;;;0.00;0.00;;;20.00;99.20;226.50;231333.00;;;;4979639;28;20192;-77
2022/09/03 09:57:21;;;;;;;0.00;0.00;;;20.10;99.90;226.50;231333.00;;;;4985128;28;20224;-76
2022/09/03 10:00:03;;;;;;;0.00;0.00;;;20.20;99.70;226.50;231333.00;;;;4986480;28;20288;-76
2022/09/03 10:02:47;;;;;;;0.00;0.00;;;20.40;99.90;226.50;231333.00;;;;4985684;28;20200;-76
2022/09/03 10:05:23;;;;;;;0.10;0.10;;;20.50;99.40;226.50;231333.00;;;;4978579;28;20192;-76
2022/09/03 10:07:59;;;;;;;0.00;0.00;;;20.60;99.40;226.50;231333.00;;;;4969614;28;20572;-76
2022/09/03 10:10:36;;;;;;;0.00;0.00;;;20.90;98.80;226.50;231333.00;;;;4965430;28;20217;-76
2022/09/03 10:13:14;;;;;;;0.00;0.00;;;21.00;98.70;226.50;231333.00;;;;4964736;28;20235;-78
2022/09/03 10:15:55;;;;;;;0.00;0.00;;;21.20;98.50;226.50;231333.00;;;;4977802;28;20196;-78
2022/09/03 10:18:36;;;;;;;0.00;0.00;;;21.30;98.90;226.50;231333.00;;;;4966744;28;20230;-78
2022/09/03 10:21:18;;;;;;;0.00;0.00;;;21.60;98.10;226.50;231333.00;;;;4973779;28;20890;-76
2022/09/03 10:23:59;;;;;;;0.00;0.00;;;21.80;97.00;226.50;231333.00;;;;4965754;28;20631;-76
2022/09/03 10:26:38;;;;;;;0.00;0.00;;;22.10;96.10;226.50;231333.00;;;;4973052;28;20657;-76
2022/09/03 10:29:10;;;;;;;0.00;0.00;;;22.20;96.70;226.50;231333.00;;;;4960359;28;20225;-78
2022/09/03 10:31:59;;;;;;;0.00;0.00;;;22.30;96.80;226.50;231333.00;;;;4956072;28;20202;-76
2022/09/03 10:34:39;;;;;;;0.00;0.00;;;22.30;96.80;226.50;231333.00;;;;4953899;29;20284;-76
2022/09/03 10:37:24;;;;;;;0.00;0.00;;;22.40;96.40;226.50;231333.00;;;;4967414;28;20590;-75
2022/09/03 10:40:16;;;;;;;0.00;0.00;;;22.40;96.20;226.50;231333.00;;;;4980646;28;20227;-76
2022/09/03 10:43:16;;;;;;;0.00;0.00;;;22.70;96.30;226.50;231333.00;;;;4981552;28;20200;-76
2022/09/03 10:46:01;;;;;;;0.00;0.00;;;22.70;96.40;226.50;231333.00;;;;4982234;28;20204;-76
2022/09/03 10:49:12;;;;;;;0.00;0.00;;;22.80;95.80;226.50;231333.00;;;;4980624;28;20208;-76
2022/09/03 10:51:49;;;;;;;0.00;0.00;;;22.70;95.40;226.50;231333.00;;;;4975179;28;20656;-76
2022/09/03 10:54:39;;;;;;;0.00;0.00;;;22.90;95.30;226.50;231333.00;;;;4971561;28;20201;-76
2022/09/03 10:57:21;;;;;;;0.00;0.00;;;22.90;95.70;226.50;231333.00;;;;4969412;28;20233;-76
2022/09/03 11:00:08;;;;;;;0.00;0.00;;;23.00;95.30;226.50;231333.00;;;;4953623;28;20217;-76
2022/09/03 11:03:25;;;;;;;0.00;0.00;;;23.30;94.80;226.50;231333.00;;;;4962220;28;20189;-77
2022/09/03 11:06:05;;;;;;;0.00;0.00;;;23.50;94.60;226.50;231333.00;;;;4960121;28;20695;-77
2022/09/03 11:08:45;;;;;;;0.00;0.00;;;23.50;94.20;226.50;231333.00;;;;4976963;28;20692;-77
2022/09/03 11:11:25;;;;;;;0.00;0.00;;;23.70;94.60;226.50;231333.00;;;;4974841;28;20260;-77
2022/09/03 11:14:04;;;;;;;0.00;0.00;;;23.90;94.80;226.50;231333.00;;;;4956624;28;20201;-77
2022/09/03 11:16:43;;;;;;;0.00;0.00;;;24.10;94.20;226.50;231333.00;;;;4954312;28;20204;-77
2022/09/03 11:19:18;;;;;;;0.00;0.00;;;24.10;94.10;226.50;231333.00;;;;4955489;28;20225;-77